Time;durP1;ratioP1;P1;durP2;ratioP2;P2;SDS_P1;SDS_P2;PMS_P1;PMS_P2;Temp;Humidity;BMP_temperature;BMP_pressure;BME280_temperature;BME280_humidity;BME280_pressure;Samples;Min_cycle;Max_cycle;Signal;HPM_P1;HPM_P2
2022/11/12 00:02:17;;;;;;;19.45;7.82;;;;;;;0.25;100.00;97039.84;4996474;28;20051;-71
2022/11/12 00:04:42;;;;;;;17.63;8.23;;;;;;;0.30;100.00;97049.69;4981814;28;20057;-71
2022/11/12 00:07:08;;;;;;;16.13;7.50;;;;;;;0.32;100.00;97043.38;4991868;28;20092;-70
2022/11/12 00:09:34;;;;;;;19.10;8.15;;;;;;;0.25;100.00;97046.81;4993817;28;20046;-70
2022/11/12 00:11:59;;;;;;;14.23;7.75;;;;;;;0.20;100.00;97038.72;4988954;28;20054;-70
2022/11/12 00:14:25;;;;;;;19.83;8.90;;;;;;;0.13;100.00;97041.97;4973324;28;20417;-70
2022/11/12 00:16:50;;;;;;;17.20;8.13;;;;;;;0.03;100.00;97043.94;4974960;28;20046;-70
2022/11/12 00:19:16;;;;;;;21.45;7.43;;;;;;;0.08;100.00;97046.84;4985867;28;20046;-70
2022/11/12 00:21:41;;;;;;;16.90;7.82;;;;;;;0.01;100.00;97045.88;4991389;28;20404;-70
2022/11/12 00:24:07;;;;;;;18.65;7.35;;;;;;;0.03;100.00;97049.13;4972989;28;20070;-70
2022/11/12 00:26:32;;;;;;;18.27;7.63;;;;;;;0.09;100.00;97045.06;4988078;28;20066;-69
2022/11/12 00:28:58;;;;;;;16.20;7.75;;;;;;;0.11;100.00;97041.31;4990473;28;20074;-70
2022/11/12 00:31:24;;;;;;;16.58;7.32;;;;;;;0.07;100.00;97040.06;5007535;28;20426;-70
2022/11/12 00:33:50;;;;;;;15.10;7.28;;;;;;;0.04;100.00;97035.19;4978411;28;20051;-71
2022/11/12 00:36:15;;;;;;;17.05;7.53;;;;;;;0.03;100.00;97038.78;4972515;28;20074;-71
2022/11/12 00:38:40;;;;;;;16.52;7.60;;;;;;;-0.05;100.00;97031.00;4984730;28;20047;-71
2022/11/12 00:41:06;;;;;;;16.00;7.82;;;;;;;-0.11;100.00;97026.50;4989361;28;20074;-71
2022/11/12 00:43:32;;;;;;;18.42;7.65;;;;;;;-0.07;100.00;97038.13;4978705;28;20041;-71
2022/11/12 00:45:57;;;;;;;17.05;7.90;;;;;;;-0.05;100.00;97041.38;4984934;28;20073;-70
2022/11/12 00:48:23;;;;;;;19.02;7.43;;;;;;;-0.07;100.00;97033.78;4999508;28;20071;-71
2022/11/12 00:50:48;;;;;;;16.70;7.95;;;;;;;-0.02;100.00;97035.84;4978013;28;20047;-71
2022/11/12 00:53:13;;;;;;;15.77;7.32;;;;;;;0.00;100.00;97028.75;4972333;28;20522;-71
2022/11/12 00:55:39;;;;;;;16.98;7.65;;;;;;;-0.01;100.00;97037.47;4971246;28;20124;-70
2022/11/12 00:58:04;;;;;;;16.75;7.45;;;;;;;-0.02;100.00;97036.66;4982164;28;20050;-71
2022/11/12 01:00:30;;;;;;;20.50;7.90;;;;;;;0.08;100.00;97031.31;4987877;28;20120;-68
2022/11/12 01:02:55;;;;;;;15.00;7.28;;;;;;;0.03;100.00;97030.19;4994355;28;20038;-70
2022/11/12 01:05:21;;;;;;;16.98;7.45;;;;;;;-0.02;100.00;97036.66;4972503;28;20054;-70
2022/11/12 01:07:47;;;;;;;16.00;8.13;;;;;;;-0.05;100.00;97043.94;5001769;28;20042;-70
2022/11/12 01:10:13;;;;;;;18.88;8.50;;;;;;;-0.04;100.00;97035.22;5004924;28;20049;-70
2022/11/12 01:12:38;;;;;;;19.80;7.97;;;;;;;0.04;100.00;97032.59;4985598;28;20046;-71
2022/11/12 01:15:06;;;;;;;19.48;8.05;;;;;;;0.08;100.00;97030.50;4980165;28;20053;-68
2022/11/12 01:17:31;;;;;;;15.77;7.75;;;;;;;0.11;100.00;97025.78;4971949;28;20066;-68
2022/11/12 01:19:56;;;;;;;16.63;8.48;;;;;;;0.06;100.00;97022.91;4971345;28;20081;-69
2022/11/12 01:22:23;;;;;;;20.02;8.60;;;;;;;0.13;100.00;97018.69;4996416;28;20042;-70
2022/11/12 01:24:48;;;;;;;21.80;9.48;;;;;;;0.10;100.00;97013.84;4971477;28;20133;-69
2022/11/12 01:27:14;;;;;;;19.73;9.50;;;;;;;0.03;100.00;97012.06;4979879;28;20124;-70
2022/11/12 01:29:40;;;;;;;21.58;8.88;;;;;;;0.05;100.00;97016.09;4990664;28;20126;-70
2022/11/12 01:32:06;;;;;;;18.98;9.45;;;;;;;0.12;100.00;97017.06;4978092;28;20050;-69
2022/11/12 01:34:31;;;;;;;20.98;9.18;;;;;;;0.16;100.00;97008.00;4971457;28;20117;-70
2022/11/12 01:36:57;;;;;;;22.65;9.55;;;;;;;0.20;100.00;97002.47;4971436;28;20039;-70
2022/11/12 01:39:22;;;;;;;21.13;8.95;;;;;;;0.17;100.00;97004.44;4971857;28;20054;-69
2022/11/12 01:41:48;;;;;;;19.80;9.00;;;;;;;0.22;100.00;97005.72;4982522;28;20050;-70
2022/11/12 01:44:18;;;;;;;21.70;8.55;;;;;;;0.28;100.00;97010.22;4979882;28;20051;-70
2022/11/12 01:47:03;;;;;;;18.10;8.02;;;;;;;0.29;100.00;97006.66;4970392;28;20046;-70
2022/11/12 01:49:38;;;;;;;21.10;8.32;;;;;;;0.34;100.00;97004.38;4993190;28;20054;-69
2022/11/12 01:52:15;;;;;;;22.55;8.93;;;;;;;0.35;100.00;97006.00;4960123;28;20050;-69
2022/11/12 01:54:42;;;;;;;15.57;8.05;;;;;;;0.35;100.00;97011.16;4982298;28;20039;-69
2022/11/12 01:57:11;;;;;;;19.23;8.63;;;;;;;0.34;100.00;96999.19;4982484;28;20092;-70
2022/11/12 01:59:41;;;;;;;16.42;7.38;;;;;;;0.44;100.00;96994.63;4990466;28;20408;-69
2022/11/12 02:02:07;;;;;;;17.30;7.60;;;;;;;0.42;100.00;96986.22;4996129;28;20038;-69
2022/11/12 02:04:35;;;;;;;17.90;8.52;;;;;;;0.44;100.00;96984.25;4988840;28;20519;-69
2022/11/12 02:07:01;;;;;;;17.20;8.07;;;;;;;0.48;100.00;96985.53;4992210;28;20046;-69
2022/11/12 02:09:28;;;;;;;15.35;7.97;;;;;;;0.51;100.00;96981.81;4989984;28;20047;-69
2022/11/12 02:11:54;;;;;;;17.08;7.38;;;;;;;0.50;100.00;96991.38;4970989;28;20669;-70
2022/11/12 02:14:20;;;;;;;18.10;7.82;;;;;;;0.51;100.00;96985.19;4980598;28;20113;-70
2022/11/12 02:16:47;;;;;;;15.43;7.70;;;;;;;0.55;100.00;96979.66;5009257;28;20423;-70
2022/11/12 02:19:14;;;;;;;19.08;7.45;;;;;;;0.58;100.00;96979.34;4986919;28;20042;-70
2022/11/12 02:21:40;;;;;;;14.50;6.75;;;;;;;0.59;100.00;96971.41;4977326;28;20112;-69
2022/11/12 02:24:12;;;;;;;15.18;7.32;;;;;;;0.61;100.00;96979.00;4984852;28;20042;-69
2022/11/12 02:26:42;;;;;;;14.85;6.75;;;;;;;0.64;100.00;96983.84;4969226;28;20117;-70
2022/11/12 02:29:08;;;;;;;16.92;7.28;;;;;;;0.68;100.00;96980.75;4986374;28;20046;-69
2022/11/12 02:31:34;;;;;;;15.95;7.30;;;;;;;0.68;100.00;96974.75;4997333;28;20061;-69
2022/11/12 02:34:00;;;;;;;12.75;6.82;;;;;;;0.72;100.00;96965.69;4997581;28;20038;-68
2022/11/12 02:36:26;;;;;;;14.15;6.75;;;;;;;0.73;100.00;96969.84;4991329;28;20056;-69
2022/11/12 02:38:52;;;;;;;12.90;6.47;;;;;;;0.68;100.00;96964.41;4984484;28;20125;-69
2022/11/12 02:41:17;;;;;;;15.60;6.53;;;;;;;0.78;100.00;96970.16;4979034;28;20480;-70
2022/11/12 02:43:43;;;;;;;13.73;5.75;;;;;;;0.79;100.00;96965.78;4986088;28;20038;-69
2022/11/12 02:46:09;;;;;;;10.40;5.70;;;;;;;0.80;100.00;96963.00;4982948;28;20511;-70
2022/11/12 02:48:34;;;;;;;12.20;6.30;;;;;;;0.80;100.00;96972.59;4981271;28;20550;-69
2022/11/12 02:51:00;;;;;;;13.15;6.38;;;;;;;0.82;100.00;96966.25;4994067;28;20038;-70
2022/11/12 02:53:25;;;;;;;13.52;6.07;;;;;;;0.89;100.00;96973.34;5006152;28;20050;-69
2022/11/12 02:55:51;;;;;;;12.32;5.97;;;;;;;0.84;100.00;96968.69;4970561;28;20511;-69
2022/11/12 02:58:17;;;;;;;15.57;6.25;;;;;;;0.81;100.00;96969.81;4973962;28;20122;-69
2022/11/12 03:00:42;;;;;;;10.85;5.85;;;;;;;0.82;100.00;96971.44;4974408;28;20047;-70
2022/11/12 03:03:08;;;;;;;11.38;6.57;;;;;;;0.77;100.00;96963.34;4974534;28;20567;-69
2022/11/12 03:05:34;;;;;;;11.90;5.90;;;;;;;0.76;100.00;96969.53;4975273;28;20471;-69
2022/11/12 03:08:03;;;;;;;10.00;5.78;;;;;;;0.74;100.00;96966.31;4999997;28;20050;-69
2022/11/12 03:10:29;;;;;;;13.20;5.55;;;;;;;0.71;100.00;96968.44;5001647;28;20049;-69
2022/11/12 03:12:57;;;;;;;12.77;6.45;;;;;;;0.68;100.00;96975.56;4986154;28;20042;-69
2022/11/12 03:15:24;;;;;;;12.32;6.25;;;;;;;0.60;100.00;96973.00;4973355;28;20050;-69
2022/11/12 03:17:49;;;;;;;13.02;5.88;;;;;;;0.68;100.00;96980.75;4979423;28;20054;-70
2022/11/12 03:20:15;;;;;;;12.18;6.25;;;;;;;0.63;100.00;96987.41;4993485;28;20042;-70
2022/11/12 03:22:41;;;;;;;12.80;6.75;;;;;;;0.66;100.00;96974.09;4964043;28;20490;-70
2022/11/12 03:25:08;;;;;;;15.13;6.63;;;;;;;0.59;100.00;96980.94;4986234;28;20051;-69
2022/11/12 03:27:34;;;;;;;12.88;6.35;;;;;;;0.58;100.00;96992.31;4973766;28;20534;-69
2022/11/12 03:29:59;;;;;;;16.25;6.78;;;;;;;0.48;100.00;96990.72;4973793;28;20054;-70
2022/11/12 03:32:25;;;;;;;9.75;6.05;;;;;;;0.46;100.00;96987.50;4979942;28;20045;-70
2022/11/12 03:34:51;;;;;;;11.43;6.22;;;;;;;0.45;100.00;96991.06;4987568;28;20050;-70
2022/11/12 03:37:16;;;;;;;13.90;6.80;;;;;;;0.42;100.00;96988.81;4973864;28;20094;-69
2022/11/12 03:39:42;;;;;;;14.95;6.15;;;;;;;0.46;100.00;96992.69;4973199;28;20166;-70
2022/11/12 03:42:07;;;;;;;11.98;6.53;;;;;;;0.32;100.00;96995.97;4989052;28;20046;-70
2022/11/12 03:44:33;;;;;;;13.27;6.68;;;;;;;0.21;100.00;96988.56;5001406;28;20131;-70
2022/11/12 03:46:58;;;;;;;12.77;6.15;;;;;;;0.22;100.00;97001.34;4985721;28;20058;-70
2022/11/12 03:49:24;;;;;;;13.25;6.05;;;;;;;0.14;100.00;96989.25;4978208;28;20093;-70
2022/11/12 03:51:49;;;;;;;12.02;6.47;;;;;;;0.02;100.00;96993.16;4980559;28;20050;-70
2022/11/12 03:54:15;;;;;;;13.32;6.38;;;;;;;-0.04;100.00;96992.03;4996562;28;20053;-70
2022/11/12 03:56:40;;;;;;;13.82;6.90;;;;;;;-0.13;100.00;96997.38;4973955;28;20054;-69
2022/11/12 03:59:06;;;;;;;11.50;6.82;;;;;;;-0.11;100.00;96998.03;4973148;28;20497;-70
2022/11/12 04:01:32;;;;;;;12.73;6.63;;;;;;;-0.13;100.00;96994.78;4977014;28;20054;-70
2022/11/12 04:03:57;;;;;;;17.13;7.10;;;;;;;-0.11;100.00;96995.44;4996292;28;20044;-70
2022/11/12 04:09:07;;;;;;;15.57;6.65;;;;;;;-0.13;100.00;96997.38;4981931;28;20039;-70
2022/11/12 04:11:33;;;;;;;13.63;6.53;;;;;;;-0.20;100.00;97003.22;4991211;28;20385;-69
2022/11/12 04:13:59;;;;;;;13.60;6.18;;;;;;;-0.19;100.00;96999.66;4993613;28;20061;-70
2022/11/12 04:22:08;;;;;;;10.63;6.05;;;;;;;-0.27;100.00;96994.50;4984081;28;20046;-70
2022/11/12 04:27:31;;;;;;;11.85;6.82;;;;;;;-0.35;100.00;96997.09;4972844;28;20412;-69
2022/11/12 04:30:15;;;;;;;9.52;5.63;;;;;;;-0.35;100.00;96999.69;4972930;28;20042;-69
2022/11/12 04:32:50;;;;;;;12.02;6.57;;;;;;;-0.40;100.00;96991.63;4995068;28;20054;-70
2022/11/12 04:35:17;;;;;;;10.18;5.38;;;;;;;-0.37;100.00;96991.28;4990127;28;20039;-70
2022/11/12 04:37:44;;;;;;;13.10;6.00;;;;;;;-0.48;100.00;96995.00;4972615;28;20109;-69
2022/11/12 04:45:42;;;;;;;12.98;6.18;;;;;;;-0.49;100.00;96997.75;4991740;28;20082;-69
2022/11/12 04:48:08;;;;;;;14.00;6.40;;;;;;;-0.44;100.00;97000.66;4972175;28;20050;-70
2022/11/12 04:50:34;;;;;;;13.93;6.40;;;;;;;-0.53;100.00;97002.44;4972393;28;20043;-70
2022/11/12 04:52:59;;;;;;;13.77;6.50;;;;;;;-0.57;100.00;97001.16;4994197;28;20057;-70
2022/11/12 04:55:25;;;;;;;16.33;7.38;;;;;;;-0.53;100.00;96995.50;4985621;28;20034;-70
2022/11/12 04:57:50;;;;;;;13.13;6.40;;;;;;;-0.53;100.00;97003.25;4972522;28;20101;-69
2022/11/12 05:00:16;;;;;;;13.75;6.68;;;;;;;-0.46;100.00;97002.59;4972189;28;20133;-68
2022/11/12 05:02:42;;;;;;;10.88;6.22;;;;;;;-0.45;100.00;96999.03;4993221;28;20046;-69
2022/11/12 05:05:08;;;;;;;11.15;6.03;;;;;;;-0.49;100.00;97002.91;4995462;28;20050;-70
2022/11/12 05:07:34;;;;;;;13.27;6.60;;;;;;;-0.44;100.00;97000.66;4976408;28;20065;-70
2022/11/12 05:09:59;;;;;;;11.32;6.63;;;;;;;-0.46;100.00;96997.41;4972047;28;20051;-70
2022/11/12 05:12:25;;;;;;;13.30;7.20;;;;;;;-0.41;100.00;97000.34;4984173;28;20455;-70
2022/11/12 05:14:51;;;;;;;11.05;6.43;;;;;;;-0.36;100.00;97008.41;4986608;28;20444;-70
2022/11/12 05:17:16;;;;;;;12.05;6.45;;;;;;;-0.41;100.00;97005.50;4987878;28;20034;-70
2022/11/12 05:19:41;;;;;;;18.70;6.72;;;;;;;-0.44;100.00;97000.66;5004407;28;20049;-70
2022/11/12 05:22:09;;;;;;;12.30;6.55;;;;;;;-0.34;100.00;97006.47;4992055;28;20051;-70
2022/11/12 05:24:40;;;;;;;12.82;7.03;;;;;;;-0.35;100.00;97004.84;4971823;28;20050;-70
2022/11/12 05:27:14;;;;;;;13.68;7.38;;;;;;;-0.24;100.00;97007.09;4971746;28;20125;-68
2022/11/12 05:29:40;;;;;;;;;;;;;;;-0.21;100.00;97006.78;4972216;28;20051;-69
2022/11/12 05:32:06;;;;;;;13.05;7.03;;;;;;;-0.21;100.00;97006.78;4986275;28;19921;-68
2022/11/12 05:34:32;;;;;;;13.75;6.93;;;;;;;-0.21;100.00;97011.94;5001072;28;20034;-69
2022/11/12 05:36:58;;;;;;;14.23;8.02;;;;;;;-0.24;100.00;97009.69;4993212;28;20048;-70
2022/11/12 05:39:23;;;;;;;14.93;8.00;;;;;;;-0.20;100.00;97003.22;4994157;28;20058;-67
2022/11/12 05:41:51;;;;;;;16.08;9.23;;;;;;;-0.09;100.00;97003.84;4984584;28;20092;-67
2022/11/12 05:44:17;;;;;;;15.60;8.35;;;;;;;0.06;100.00;97002.19;4971508;28;20050;-67
2022/11/12 05:46:42;;;;;;;14.55;8.32;;;;;;;0.00;100.00;97008.03;4971612;28;20042;-69
2022/11/12 05:49:08;;;;;;;16.33;8.52;;;;;;;0.09;100.00;97007.03;4983742;28;20525;-68
2022/11/12 05:51:33;;;;;;;15.30;8.38;;;;;;;0.07;100.00;97001.22;4991669;28;20038;-73
2022/11/12 05:54:00;;;;;;;15.40;9.15;;;;;;;0.20;100.00;97005.06;4999737;28;20458;-76
2022/11/12 05:56:25;;;;;;;16.75;9.98;;;;;;;0.29;100.00;97017.81;4972234;28;20038;-71
2022/11/12 05:58:51;;;;;;;19.52;10.05;;;;;;;0.29;100.00;97011.84;4991979;28;20053;-70
2022/11/12 06:01:17;;;;;;;18.55;10.50;;;;;;;0.42;100.00;97014.72;5003653;28;20051;-70
2022/11/12 06:03:43;;;;;;;19.02;10.43;;;;;;;0.43;100.00;97024.09;4986591;28;20058;-69
2022/11/12 06:06:09;;;;;;;22.42;11.88;;;;;;;0.44;100.00;97025.69;4982031;28;20058;-71
2022/11/12 06:08:34;;;;;;;20.90;10.98;;;;;;;0.52;100.00;97032.66;4972049;28;20046;-75
2022/11/12 06:10:59;;;;;;;24.67;11.15;;;;;;;0.54;100.00;97029.88;4972353;28;20044;-68
2022/11/12 06:13:25;;;;;;;20.15;10.30;;;;;;;0.60;100.00;97034.38;4970951;28;20062;-70
2022/11/12 06:15:52;;;;;;;22.48;11.02;;;;;;;0.53;100.00;97026.47;4965221;28;20058;-69
2022/11/12 06:18:18;;;;;;;20.05;10.73;;;;;;;0.63;100.00;97031.44;4998689;28;20084;-67
2022/11/12 06:20:43;;;;;;;18.40;10.50;;;;;;;0.65;100.00;97032.09;4981796;28;20047;-69
2022/11/12 06:23:09;;;;;;;23.27;11.07;;;;;;;0.70;100.00;97034.97;4995973;28;20060;-67
2022/11/12 06:25:34;;;;;;;27.73;10.88;;;;;;;0.71;100.00;97036.59;4984709;28;20109;-67
2022/11/12 06:28:00;;;;;;;25.98;10.85;;;;;;;0.61;100.00;97036.00;4975802;28;20535;-66
2022/11/12 06:30:25;;;;;;;37.35;12.48;;;;;;;0.58;100.00;97028.56;4971998;28;20051;-66
2022/11/12 06:32:51;;;;;;;23.58;13.07;;;;;;;0.57;100.00;97034.72;4958270;28;20078;-66
2022/11/12 06:35:18;;;;;;;34.72;12.50;;;;;;;0.56;100.00;97035.69;4981870;28;20054;-67
2022/11/12 06:37:47;;;;;;;34.92;12.43;;;;;;;0.59;100.00;97032.75;4998819;28;20577;-67
2022/11/12 06:40:13;;;;;;;69.72;12.38;;;;;;;0.62;100.00;97032.44;4996948;28;20047;-67
2022/11/12 06:42:38;;;;;;;30.52;12.10;;;;;;;0.62;100.00;97033.25;4986992;28;20330;-68
2022/11/12 06:45:04;;;;;;;29.55;13.10;;;;;;;0.50;100.00;97030.22;4997809;28;20046;-68
2022/11/12 06:47:29;;;;;;;31.17;13.10;;;;;;;0.48;100.00;97039.13;4993702;28;20064;-70
2022/11/12 06:49:55;;;;;;;48.72;12.25;;;;;;;0.59;100.00;97041.34;5002014;28;20519;-69
2022/11/12 06:52:20;;;;;;;25.45;12.25;;;;;;;0.67;100.00;97037.91;4983765;28;20125;-67
2022/11/12 06:54:46;;;;;;;49.25;12.52;;;;;;;0.67;100.00;97035.31;4997845;28;20054;-68
2022/11/12 06:57:11;;;;;;;35.10;12.85;;;;;;;0.64;100.00;97030.50;4993519;28;20367;-66
2022/11/12 06:59:37;;;;;;;39.65;11.93;;;;;;;0.71;100.00;97028.84;4983231;28;20054;-67
2022/11/12 07:02:03;;;;;;;31.75;11.68;;;;;;;0.77;100.00;97030.75;4990428;28;20051;-67
2022/11/12 07:04:28;;;;;;;43.08;11.00;;;;;;;0.76;100.00;97034.31;4991292;28;20531;-67
2022/11/12 07:06:54;;;;;;;26.05;11.90;;;;;;;0.95;100.00;97037.44;4986016;28;20113;-67
2022/11/12 07:09:19;;;;;;;32.20;11.85;;;;;;;0.93;100.00;97039.41;4971375;28;20416;-67
2022/11/12 07:11:45;;;;;;;22.75;11.73;;;;;;;1.05;100.00;97038.06;4992876;28;20095;-67
2022/11/12 07:14:10;;;;;;;38.10;11.23;;;;;;;0.93;100.00;97045.41;4978036;28;20097;-66
2022/11/12 07:16:36;;;;;;;20.25;10.57;;;;;;;1.11;100.00;97047.75;4983776;28;20046;-66
2022/11/12 07:19:02;;;;;;;25.20;11.98;;;;;;;1.11;100.00;97046.94;4991780;28;20042;-69
2022/11/12 07:21:28;;;;;;;33.17;16.25;;;;;;;1.02;100.00;97048.75;4992968;28;20050;-66
2022/11/12 07:23:53;;;;;;;34.17;18.10;;;;;;;1.00;100.00;97038.56;4982071;28;20046;-69
2022/11/12 07:26:22;;;;;;;25.85;14.27;;;;;;;1.07;100.00;97033.50;4982780;28;20668;-67
2022/11/12 07:28:49;;;;;;;21.50;11.85;;;;;;;1.11;100.00;97037.38;4986926;28;20054;-66
2022/11/12 07:31:16;;;;;;;20.50;10.98;;;;;;;1.09;100.00;97039.31;4997177;28;20051;-66
2022/11/12 07:33:43;;;;;;;28.08;14.98;;;;;;;1.19;100.00;97037.31;4973176;28;20039;-66
2022/11/12 07:36:13;;;;;;;26.30;12.27;;;;;;;1.33;100.00;97040.16;4973214;28;20046;-67
2022/11/12 07:38:40;;;;;;;18.50;10.25;;;;;;;1.40;100.00;97043.66;4991009;28;20065;-66
2022/11/12 07:41:07;;;;;;;21.33;10.50;;;;;;;1.54;100.00;97037.72;4992885;28;20042;-66
2022/11/12 07:43:35;;;;;;;18.25;9.68;;;;;;;1.55;100.00;97039.34;4972909;28;20519;-67
2022/11/12 07:46:03;;;;;;;21.85;9.95;;;;;;;1.56;100.00;97034.94;4973466;28;20051;-66
2022/11/12 07:48:29;;;;;;;20.23;10.80;;;;;;;1.68;100.00;97037.94;4985634;28;20061;-66
2022/11/12 07:50:59;;;;;;;17.80;10.07;;;;;;;1.78;100.00;97033.31;4971742;28;20046;-67
2022/11/12 07:53:25;;;;;;;19.40;10.38;;;;;;;1.86;100.00;97035.81;4973522;28;20118;-66
2022/11/12 07:55:55;;;;;;;20.58;10.30;;;;;;;1.95;100.00;97033.16;4972805;28;20043;-67
2022/11/12 07:58:22;;;;;;;37.75;15.95;;;;;;;2.09;100.00;97040.16;4990083;28;20538;-66
2022/11/12 08:00:48;;;;;;;24.45;11.00;;;;;;;2.32;100.00;97034.09;4993051;28;20046;-66
2022/11/12 08:03:13;;;;;;;19.92;10.38;;;;;;;2.34;100.00;97037.31;4992512;28;20121;-67
2022/11/12 08:05:39;;;;;;;19.90;10.27;;;;;;;2.28;100.00;97038.03;4985780;28;20050;-66
2022/11/12 08:08:04;;;;;;;22.45;10.30;;;;;;;2.39;100.00;97046.19;4986594;28;20051;-66
2022/11/12 08:10:30;;;;;;;26.13;11.48;;;;;;;2.35;100.00;97044.13;4974298;28;20047;-67
2022/11/12 08:12:55;;;;;;;22.25;11.43;;;;;;;2.45;100.00;97039.47;4979960;28;20145;-66
2022/11/12 08:15:21;;;;;;;18.50;9.50;;;;;;;2.46;100.00;97046.28;4982514;28;20447;-66
2022/11/12 08:17:47;;;;;;;14.95;8.65;;;;;;;2.44;100.00;97048.22;4992142;28;20101;-66
2022/11/12 08:20:13;;;;;;;13.45;8.52;;;;;;;2.50;100.00;97047.53;4981606;28;20129;-67
2022/11/12 08:22:39;;;;;;;14.25;8.15;;;;;;;2.76;100.00;97051.47;4982384;28;20538;-66
2022/11/12 08:25:05;;;;;;;15.93;9.07;;;;;;;2.70;100.00;97046.97;4985487;28;20412;-67
2022/11/12 08:27:30;;;;;;;15.65;8.68;;;;;;;2.81;100.00;97043.91;4991602;28;20100;-67
2022/11/12 08:29:56;;;;;;;17.55;8.40;;;;;;;3.00;100.00;97049.53;4990619;28;20042;-67
2022/11/12 08:32:21;;;;;;;17.13;9.80;;;;;;;2.99;100.00;97051.31;4991707;28;20112;-66
2022/11/12 08:34:47;;;;;;;18.13;9.50;;;;;;;3.04;100.00;97059.38;4974259;28;20053;-67
2022/11/12 08:37:13;;;;;;;22.35;10.95;;;;;;;2.90;100.00;97055.00;5003205;28;20062;-67
2022/11/12 08:39:38;;;;;;;19.23;11.18;;;;;;;3.00;100.00;97062.53;4986205;28;20055;-66
2022/11/12 08:42:04;;;;;;;16.33;9.23;;;;;;;3.12;100.00;97066.28;4979878;28;20128;-66
2022/11/12 08:44:29;;;;;;;20.88;9.75;;;;;;;3.04;100.00;97063.78;4983571;28;20046;-66
2022/11/12 08:46:55;;;;;;;16.98;9.77;;;;;;;3.05;100.00;97061.00;4986635;28;20046;-67
2022/11/12 08:49:20;;;;;;;26.70;12.77;;;;;;;2.86;100.00;97057.19;4991282;28;20046;-66
2022/11/12 08:51:46;;;;;;;19.40;10.60;;;;;;;2.94;100.00;97059.69;4976340;28;20046;-67
2022/11/12 08:54:11;;;;;;;20.85;10.60;;;;;;;2.93;100.00;97052.88;4971807;28;20409;-67
2022/11/12 08:56:38;;;;;;;18.40;10.10;;;;;;;3.07;100.00;97055.59;4976624;28;20574;-67
2022/11/12 08:59:04;;;;;;;18.85;9.95;;;;;;;3.02;100.00;97055.38;4972685;28;20108;-67
2022/11/12 09:01:29;;;;;;;18.90;10.18;;;;;;;3.08;100.00;97049.41;4980530;28;20503;-67
2022/11/12 09:03:55;;;;;;;17.17;9.90;;;;;;;3.32;100.00;97040.47;4984758;28;20043;-66
2022/11/12 09:06:20;;;;;;;18.77;10.50;;;;;;;3.43;100.00;97046.97;4980918;28;20085;-67
2022/11/12 09:08:46;;;;;;;21.92;11.10;;;;;;;3.55;100.00;97050.69;4990983;28;20419;-67
2022/11/12 09:11:11;;;;;;;19.33;10.75;;;;;;;3.74;100.00;97051.84;4997185;28;20050;-68
2022/11/12 09:13:37;;;;;;;17.98;10.10;;;;;;;3.78;100.00;97050.50;4981409;28;20046;-67
2022/11/12 09:16:04;;;;;;;21.13;10.45;;;;;;;3.80;100.00;97058.09;4989289;28;20542;-67
2022/11/12 09:18:31;;;;;;;20.92;10.02;;;;;;;4.04;100.00;97043.03;4987373;28;20058;-67
2022/11/12 09:21:05;;;;;;;20.27;10.77;;;;;;;3.98;100.00;97045.44;4991112;28;20046;-67
2022/11/12 09:23:32;;;;;;;19.08;10.82;;;;;;;4.31;100.00;97055.28;4977675;28;20050;-67
2022/11/12 09:25:57;;;;;;;21.13;9.68;;;;;;;4.11;100.00;97049.13;4982202;28;20451;-67
2022/11/12 09:28:23;;;;;;;20.75;10.32;;;;;;;4.25;100.00;97048.22;5000286;28;20046;-67
2022/11/12 09:30:50;;;;;;;18.55;10.30;;;;;;;5.16;100.00;97054.25;4992087;28;20108;-67
2022/11/12 09:33:18;;;;;;;18.50;10.23;;;;;;;6.13;100.00;97059.19;4988804;28;20045;-67
2022/11/12 09:35:45;;;;;;;14.68;9.50;;;;;;;6.69;100.00;97053.44;4978931;28;20042;-67
2022/11/12 09:38:11;;;;;;;18.73;9.70;;;;;;;6.68;100.00;97054.47;4988349;28;20053;-67
2022/11/12 09:41:04;;;;;;;19.65;10.57;;;;;;;7.20;100.00;97056.28;4987048;28;20049;-67
2022/11/12 09:43:44;;;;;;;17.15;9.75;;;;;;;7.08;100.00;97054.31;4983090;28;20416;-67
2022/11/12 09:46:38;;;;;;;18.73;10.43;;;;;;;7.59;100.00;97050.00;4990999;28;20049;-67
2022/11/12 09:49:07;;;;;;;18.65;10.02;;;;;;;7.78;100.00;97043.00;4989887;28;20400;-67
2022/11/12 09:51:36;;;;;;;18.13;9.88;;;;;;;8.08;100.00;97052.84;5002762;28;20054;-67
2022/11/12 09:54:32;;;;;;;21.83;10.02;;;;;;;8.14;100.00;97051.97;4990758;28;20058;-67
2022/11/12 09:56:57;;;;;;;19.67;10.07;;;;;;;8.14;100.00;97046.72;4975954;28;20054;-67
2022/11/12 09:59:34;;;;;;;17.95;10.13;;;;;;;8.40;100.00;97044.09;4986416;28;20065;-68
2022/11/12 10:02:09;;;;;;;17.65;9.95;;;;;;;8.77;100.00;97044.94;4977496;28;20568;-68
2022/11/12 10:05:03;;;;;;;18.42;9.40;;;;;;;8.60;100.00;97049.16;4979109;28;20050;-68
2022/11/12 10:07:37;;;;;;;20.80;10.25;;;;;;;8.76;100.00;97038.06;4996800;28;20816;-67
2022/11/12 10:10:29;;;;;;;17.45;10.40;;;;;;;8.33;100.00;97038.91;4983076;28;20105;-68
2022/11/12 10:13:37;;;;;;;16.77;10.25;;;;;;;9.68;100.00;97036.25;4985220;28;20186;-67
2022/11/12 10:16:46;;;;;;;18.92;10.32;;;;;;;10.30;100.00;97035.84;4969919;28;20428;-68
2022/11/12 10:19:40;;;;;;;17.15;10.07;;;;;;;10.19;100.00;97024.28;4978594;28;20050;-68
2022/11/12 10:22:36;;;;;;;16.42;9.55;;;;;;;10.22;100.00;97034.34;4979539;28;20050;-68
2022/11/12 10:25:13;;;;;;;16.60;10.30;;;;;;;9.94;100.00;97015.81;4980747;28;20046;-68
2022/11/12 10:27:41;;;;;;;18.85;10.50;;;;;;;9.80;100.00;97021.31;5011415;28;20042;-67
2022/11/12 10:30:15;;;;;;;19.30;10.00;;;;;;;10.82;100.00;97014.06;5006505;28;20045;-68
2022/11/12 10:32:46;;;;;;;17.83;10.18;;;;;;;11.19;100.00;97016.34;5004256;28;20523;-66
2022/11/12 10:35:15;;;;;;;16.67;9.68;;;;;;;11.64;100.00;97003.34;4989919;28;20069;-65
2022/11/12 10:37:51;;;;;;;17.40;9.25;;;;;;;10.16;100.00;97001.09;4979932;28;20113;-65
2022/11/12 10:40:20;;;;;;;17.98;9.73;;;;;;;10.27;100.00;96998.66;4990813;28;20043;-65
2022/11/12 10:43:00;;;;;;;18.10;10.13;;;;;;;10.62;100.00;96995.22;4989073;28;20047;-66
2022/11/12 10:45:26;;;;;;;17.83;11.13;;;;;;;9.57;100.00;97001.03;4994667;28;20519;-67
2022/11/12 10:47:51;;;;;;;19.02;11.18;;;;;;;9.85;100.00;96997.75;5006171;28;20415;-66
2022/11/12 10:50:21;;;;;;;18.27;10.77;;;;;;;10.71;100.00;96983.28;4999260;28;20051;-66
2022/11/12 10:53:01;;;;;;;16.10;10.60;;;;;;;11.25;100.00;96988.25;5003620;28;20045;-67
2022/11/12 10:55:33;;;;;;;14.63;9.57;;;;;;;10.14;100.00;96987.38;4998125;28;20054;-66
2022/11/12 10:58:15;;;;;;;16.33;10.20;;;;;;;11.14;100.00;96986.44;4991701;28;20073;-67
2022/11/12 11:00:53;;;;;;;17.00;9.70;;;;;;;12.49;100.00;96969.78;4984206;28;20047;-67
2022/11/12 11:03:33;;;;;;;15.32;9.57;;;;;;;12.53;100.00;96970.88;4984800;28;20530;-67
2022/11/12 11:06:14;;;;;;;14.00;8.35;;;;;;;11.34;100.00;96980.75;4987355;28;20072;-66
2022/11/12 11:08:45;;;;;;;14.02;9.18;;;;;;;11.53;100.00;96968.91;5002169;28;20543;-66
2022/11/12 11:11:13;;;;;;;15.85;9.48;;;;;;;12.76;100.00;96969.84;4995137;28;20448;-66
2022/11/12 11:13:39;;;;;;;13.63;9.52;;;;;;;11.47;100.00;96972.53;4998714;28;20051;-67
2022/11/12 11:16:06;;;;;;;14.30;9.55;;;;;;;12.56;100.00;96959.84;4985030;28;20066;-66
2022/11/12 11:18:36;;;;;;;14.20;9.82;;;;;;;13.23;100.00;96952.63;4991190;28;20058;-66
2022/11/12 11:21:35;;;;;;;11.98;8.82;;;;;;;11.36;100.00;96952.28;4978902;28;20101;-67
2022/11/12 11:24:12;;;;;;;14.18;9.38;;;;;;;12.12;100.00;96955.34;4987818;28;20042;-66
2022/11/12 11:26:56;;;;;;;19.67;9.52;;;;;;;11.84;100.00;96948.31;4977088;28;20047;-66
2022/11/12 11:29:55;;;;;;;15.43;9.45;;;;;;;11.42;100.00;96943.44;4991058;28;20665;-66
2022/11/12 11:32:41;;;;;;;13.68;8.70;;;;;;;12.38;100.00;96955.63;5000487;28;20057;-66
2022/11/12 11:35:44;;;;;;;14.38;9.70;;;;;;;11.75;100.00;96955.81;4966745;28;20054;-66
2022/11/12 11:38:37;;;;;;;14.98;9.88;;;;;;;11.16;100.00;96953.56;4974554;28;20055;-66
2022/11/12 11:41:09;;;;;;;19.52;11.93;;;;;;;11.29;100.00;96946.38;4975643;28;20090;-66
2022/11/12 11:43:45;;;;;;;22.33;12.55;;;;;;;11.65;100.00;96939.84;4974633;28;20055;-66